createdAt,value
2023-05-03T00:02:27.092Z,5.63
2023-05-03T00:04:54.627Z,5.63
2023-05-03T00:07:22.049Z,6.03
2023-05-03T00:09:49.614Z,5.83
2023-05-03T00:12:17.140Z,5.33
2023-05-03T00:14:44.667Z,7.00
2023-05-03T00:17:12.346Z,6.00
2023-05-03T00:19:40.520Z,5.60
2023-05-03T00:22:08.905Z,5.40
2023-05-03T00:24:36.391Z,5.20
2023-05-03T00:27:03.914Z,5.73
2023-05-03T00:29:33.361Z,5.97
2023-05-03T00:32:00.846Z,5.43
2023-05-03T00:34:28.384Z,5.50
2023-05-03T00:36:55.919Z,5.13
2023-05-03T00:39:23.803Z,5.50
2023-05-03T00:41:51.326Z,7.53
2023-05-03T00:44:19.630Z,6.17
2023-05-03T00:46:47.237Z,6.20
2023-05-03T00:49:14.727Z,6.50
2023-05-03T00:51:42.287Z,5.87
2023-05-03T00:54:10.609Z,6.70
2023-05-03T00:56:48.395Z,5.77
2023-05-03T00:59:05.698Z,7.12
2023-05-03T01:01:33.661Z,6.50
2023-05-03T01:04:02.107Z,5.37
2023-05-03T01:06:38.608Z,5.67
2023-05-03T01:09:06.063Z,5.80
2023-05-03T01:11:40.337Z,6.17
2023-05-03T01:14:30.469Z,6.50
2023-05-03T01:16:58.013Z,6.77
2023-05-03T01:19:34.547Z,6.33
2023-05-03T01:22:11.009Z,7.13
2023-05-03T01:24:38.597Z,6.77
2023-05-03T01:27:06.897Z,6.90
2023-05-03T01:29:34.437Z,6.33
2023-05-03T01:32:03.383Z,6.80
2023-05-03T01:34:51.689Z,6.77
2023-05-03T01:37:19.835Z,6.97
2023-05-03T01:39:57.004Z,7.03
2023-05-03T01:42:24.567Z,7.47
2023-05-03T01:44:52.119Z,8.37
2023-05-03T01:47:19.639Z,9.40
2023-05-03T01:49:47.507Z,7.57
2023-05-03T01:52:15.759Z,7.90
2023-05-03T01:54:43.204Z,7.67
2023-05-03T01:57:11.535Z,7.17
2023-05-03T01:59:39.064Z,8.13
2023-05-03T02:02:06.615Z,7.60
2023-05-03T02:04:35.002Z,8.07
2023-05-03T02:07:02.508Z,7.87
2023-05-03T02:09:30.048Z,10.10
2023-05-03T02:11:57.692Z,8.57
2023-05-03T02:14:25.222Z,7.73
2023-05-03T02:16:53.552Z,8.27
2023-05-03T02:19:21.109Z,8.27
2023-05-03T02:21:48.636Z,7.30
2023-05-03T02:24:16.171Z,6.90
2023-05-03T02:26:45.289Z,7.27
2023-05-03T02:29:12.818Z,7.77
2023-05-03T02:31:41.130Z,6.80
2023-05-03T02:34:09.720Z,7.20
2023-05-03T02:36:37.245Z,7.13
2023-05-03T02:39:05.548Z,7.73
2023-05-03T02:41:33.128Z,8.10
2023-05-03T02:44:00.671Z,7.37
2023-05-03T02:46:28.261Z,7.50
2023-05-03T02:48:56.903Z,8.63
2023-05-03T02:51:24.431Z,9.50
2023-05-03T02:53:52.813Z,8.50
2023-05-03T02:56:21.144Z,8.20
2023-05-03T02:58:48.680Z,9.00
2023-05-03T03:01:16.257Z,9.70
2023-05-03T03:03:43.909Z,8.70
2023-05-03T03:06:12.211Z,8.83
2023-05-03T03:08:39.696Z,8.90
2023-05-03T03:11:07.269Z,8.17
2023-05-03T03:13:34.805Z,11.65
2023-05-03T03:16:02.390Z,9.37
2023-05-03T03:18:29.936Z,9.17
2023-05-03T03:20:57.460Z,11.40
2023-05-03T03:23:24.976Z,12.40
2023-05-03T03:25:53.061Z,10.33
2023-05-03T03:28:20.590Z,10.27
2023-05-03T03:30:48.892Z,11.57
2023-05-03T03:33:16.518Z,9.40
2023-05-03T03:35:43.987Z,9.87
2023-05-03T03:38:12.315Z,8.90
2023-05-03T03:40:40.168Z,8.93
2023-05-03T03:43:07.697Z,9.40
2023-05-03T03:45:36.106Z,9.17
2023-05-03T03:48:03.770Z,9.07
2023-05-03T03:50:31.234Z,9.33
2023-05-03T03:52:58.762Z,9.80
2023-05-03T03:55:26.336Z,8.57
2023-05-03T03:57:53.872Z,8.60
2023-05-03T04:00:21.400Z,8.47
2023-05-03T04:02:49.075Z,8.50
2023-05-03T04:05:16.521Z,12.13
2023-05-03T04:07:44.040Z,9.73
2023-05-03T04:10:11.634Z,9.17
2023-05-03T04:12:39.174Z,8.60
2023-05-03T04:15:06.837Z,8.73
2023-05-03T04:17:34.501Z,8.13
2023-05-03T04:20:05.247Z,8.40
2023-05-03T04:22:32.562Z,10.93
2023-05-03T04:25:02.961Z,9.57
2023-05-03T04:27:30.456Z,10.03
2023-05-03T04:29:57.997Z,10.50
2023-05-03T04:32:26.608Z,8.97
2023-05-03T04:34:54.130Z,12.45
2023-05-03T04:37:23.350Z,10.13
2023-05-03T04:39:50.819Z,9.70
2023-05-03T04:42:18.365Z,8.83
2023-05-03T04:44:45.918Z,9.47
2023-05-03T04:47:14.242Z,9.30
2023-05-03T04:49:41.755Z,9.37
2023-05-03T04:52:09.282Z,11.50
2023-05-03T04:54:37.617Z,8.90
2023-05-03T04:57:05.178Z,10.07
2023-05-03T04:59:32.705Z,8.80
2023-05-03T05:02:00.440Z,9.83
2023-05-03T05:04:27.825Z,9.00
2023-05-03T05:06:55.384Z,8.33
2023-05-03T05:09:23.706Z,8.37
2023-05-03T05:11:51.231Z,8.73
2023-05-03T05:14:18.785Z,8.47
2023-05-03T05:16:46.486Z,8.87
2023-05-03T05:19:13.897Z,8.93
2023-05-03T05:21:41.463Z,11.25
2023-05-03T05:24:09.040Z,9.90
2023-05-03T05:26:36.578Z,9.97
2023-05-03T05:29:05.177Z,8.53
2023-05-03T05:31:31.710Z,9.00
2023-05-03T05:33:59.206Z,9.07
2023-05-03T05:36:26.769Z,9.00
2023-05-03T05:38:54.319Z,10.95
2023-05-03T05:41:21.858Z,9.03
2023-05-03T05:43:49.392Z,8.70
2023-05-03T05:46:17.856Z,9.03
2023-05-03T05:48:45.290Z,10.37
2023-05-03T05:51:13.582Z,9.07
2023-05-03T05:53:41.942Z,8.33
2023-05-03T05:56:10.240Z,8.13
2023-05-03T05:58:38.588Z,9.33
2023-05-03T06:01:06.111Z,7.97
2023-05-03T06:03:33.639Z,10.23
2023-05-03T06:06:01.216Z,9.43
2023-05-03T06:08:29.539Z,9.00
2023-05-03T06:10:57.051Z,8.00
2023-05-03T06:13:24.586Z,7.97
2023-05-03T06:15:52.150Z,8.63
2023-05-03T06:18:19.749Z,7.73
2023-05-03T06:20:51.028Z,8.53
2023-05-03T06:23:18.575Z,9.45
2023-05-03T06:25:49.095Z,8.37
2023-05-03T06:28:16.623Z,9.75
2023-05-03T06:30:44.247Z,8.47
2023-05-03T06:33:11.759Z,8.40
2023-05-03T06:35:39.267Z,7.93
2023-05-03T06:38:07.614Z,7.43
2023-05-03T06:40:35.983Z,7.07
2023-05-03T06:43:02.649Z,7.33
2023-05-03T06:45:31.377Z,8.07
2023-05-03T06:47:59.055Z,7.00
2023-05-03T06:50:26.464Z,7.57
2023-05-03T06:52:54.805Z,7.30
2023-05-03T06:55:22.340Z,7.90
2023-05-03T06:57:49.868Z,8.03
2023-05-03T07:00:18.253Z,7.43
2023-05-03T07:02:45.849Z,7.00
2023-05-03T07:05:14.119Z,7.30
2023-05-03T07:07:41.685Z,7.70
2023-05-03T07:10:09.260Z,7.50
2023-05-03T07:12:36.829Z,7.60
2023-05-03T07:15:04.454Z,8.65
2023-05-03T07:17:32.021Z,7.77
2023-05-03T07:19:59.511Z,8.30
2023-05-03T07:22:27.843Z,7.47
2023-05-03T07:24:55.380Z,6.80
2023-05-03T07:27:22.919Z,6.53
2023-05-03T07:29:50.486Z,6.77
2023-05-03T07:32:18.805Z,7.57
2023-05-03T07:34:46.325Z,7.23
2023-05-03T07:37:14.160Z,7.30
2023-05-03T07:39:41.680Z,7.87
2023-05-03T07:42:09.244Z,7.70
2023-05-03T07:44:36.807Z,7.83
2023-05-03T07:47:04.367Z,7.70
2023-05-03T07:49:31.894Z,6.80
2023-05-03T07:51:59.458Z,8.03
2023-05-03T07:54:27.023Z,7.73
2023-05-03T07:56:55.719Z,7.50
2023-05-03T07:59:22.902Z,6.83
2023-05-03T08:01:50.425Z,7.20
2023-05-03T08:04:18.308Z,8.02
2023-05-03T08:06:45.645Z,7.00
2023-05-03T08:09:13.097Z,6.90
2023-05-03T08:11:43.215Z,7.30
2023-05-03T08:14:08.225Z,7.73
2023-05-03T08:16:35.775Z,6.83
2023-05-03T08:19:03.311Z,6.43
2023-05-03T08:21:31.229Z,6.70
2023-05-03T08:23:58.742Z,6.70
2023-05-03T08:26:26.308Z,6.83
2023-05-03T08:28:53.839Z,7.57
2023-05-03T08:31:22.133Z,6.40
2023-05-03T08:33:49.672Z,5.87
2023-05-03T08:36:18.280Z,6.00
2023-05-03T08:38:45.814Z,6.30
2023-05-03T08:41:21.903Z,6.30
2023-05-03T08:43:49.501Z,6.10
2023-05-03T08:46:17.054Z,5.17
2023-05-03T08:48:44.545Z,7.15
2023-05-03T08:51:13.165Z,6.20
2023-05-03T08:53:40.698Z,6.77
2023-05-03T08:56:09.004Z,6.43
2023-05-03T08:58:36.578Z,6.30
2023-05-03T09:01:06.902Z,6.23
2023-05-03T09:03:34.540Z,5.90
2023-05-03T09:06:04.732Z,5.77
2023-05-03T09:08:32.264Z,6.40
2023-05-03T09:10:59.819Z,6.40
2023-05-03T09:13:30.259Z,6.45
2023-05-03T09:15:58.105Z,5.67
2023-05-03T09:18:26.329Z,5.90
2023-05-03T09:20:54.728Z,6.07
2023-05-03T09:23:28.404Z,5.73
2023-05-03T09:25:56.707Z,5.67
2023-05-03T09:28:24.278Z,5.60
2023-05-03T09:30:51.817Z,5.53
2023-05-03T09:33:21.908Z,6.30
2023-05-03T09:35:58.630Z,6.13
2023-05-03T09:38:28.993Z,5.63
2023-05-03T09:40:56.573Z,4.97
2023-05-03T09:43:24.075Z,5.10
2023-05-03T09:45:51.675Z,5.70
2023-05-03T09:48:19.206Z,5.37
2023-05-03T09:50:46.741Z,5.43
2023-05-03T09:53:14.272Z,5.47
2023-05-03T09:55:42.583Z,4.30
2023-05-03T09:58:10.157Z,4.77
2023-05-03T10:00:40.665Z,5.17
2023-05-03T10:03:10.873Z,5.00
2023-05-03T10:05:44.146Z,4.87
2023-05-03T10:08:12.453Z,4.27
2023-05-03T10:10:39.994Z,4.83
2023-05-03T10:13:10.241Z,4.03
2023-05-03T10:15:35.871Z,4.80
2023-05-03T10:18:03.406Z,4.60
2023-05-03T10:20:34.408Z,4.90
2023-05-03T10:23:04.957Z,4.60
2023-05-03T10:25:32.418Z,5.60
2023-05-03T10:28:08.602Z,5.07
2023-05-03T10:30:36.126Z,4.93
2023-05-03T10:33:10.670Z,3.60
2023-05-03T10:35:38.249Z,4.73
2023-05-03T10:38:17.381Z,5.57
2023-05-03T10:40:45.702Z,4.87
2023-05-03T10:43:31.966Z,4.83
2023-05-03T10:46:02.231Z,4.97
2023-05-03T10:48:29.712Z,4.93
2023-05-03T10:50:57.247Z,5.40
2023-05-03T10:53:34.488Z,4.63
2023-05-03T10:56:02.039Z,4.77
2023-05-03T10:58:29.556Z,4.70
2023-05-03T11:00:57.139Z,4.23
2023-05-03T11:03:27.410Z,4.23
2023-05-03T11:05:54.920Z,5.33
2023-05-03T11:08:22.476Z,4.73
2023-05-03T11:10:50.033Z,4.40
2023-05-03T11:13:17.596Z,4.60
2023-05-03T11:15:47.735Z,4.20
2023-05-03T11:18:14.317Z,3.57
2023-05-03T11:20:41.873Z,3.60
2023-05-03T11:23:10.242Z,3.60
2023-05-03T11:25:37.761Z,3.00
2023-05-03T11:28:05.301Z,2.93
2023-05-03T11:30:35.843Z,3.60
2023-05-03T11:33:03.409Z,3.47
2023-05-03T11:35:31.660Z,3.70
2023-05-03T11:37:59.247Z,3.10
2023-05-03T11:40:26.785Z,3.40
2023-05-03T11:42:56.973Z,3.30
2023-05-03T11:45:39.996Z,2.90
2023-05-03T11:48:07.551Z,3.50
2023-05-03T11:50:44.406Z,4.23
2023-05-03T11:53:12.021Z,3.10
2023-05-03T11:55:39.554Z,3.90
2023-05-03T11:58:07.855Z,3.20
2023-05-03T12:00:35.460Z,2.27
2023-05-03T12:03:03.176Z,2.60
2023-05-03T12:05:30.945Z,2.87
2023-05-03T12:07:59.243Z,2.90
2023-05-03T12:10:26.956Z,3.03
2023-05-03T12:12:57.587Z,3.13
2023-05-03T12:15:35.869Z,2.70
2023-05-03T12:18:04.156Z,2.50
2023-05-03T12:23:04.274Z,2.17
2023-05-03T12:25:33.794Z,3.00
2023-05-03T12:28:17.618Z,2.90
2023-05-03T12:30:28.592Z,2.93
2023-05-03T12:32:53.454Z,2.30
2023-05-03T12:35:22.308Z,3.10
2023-05-03T12:37:49.907Z,2.50
2023-05-03T12:40:32.686Z,3.93
2023-05-03T12:42:45.947Z,3.20
2023-05-03T12:45:14.474Z,3.00
2023-05-03T12:47:44.373Z,2.77
2023-05-03T12:50:12.366Z,3.00
2023-05-03T12:52:38.933Z,3.07
2023-05-03T12:55:10.375Z,3.20
2023-05-03T12:57:37.117Z,2.50
2023-05-03T13:00:03.211Z,2.70
2023-05-03T13:04:59.568Z,4.87
2023-05-03T13:07:28.368Z,3.40
2023-05-03T13:12:20.383Z,2.77
2023-05-03T13:14:47.720Z,2.63
2023-05-03T13:17:15.253Z,2.87
2023-05-03T13:19:42.793Z,2.57
2023-05-03T13:22:11.916Z,2.60
2023-05-03T13:24:39.831Z,2.83
2023-05-03T13:27:07.371Z,2.70
2023-05-03T13:29:35.521Z,2.80
2023-05-03T13:32:03.111Z,2.67
2023-05-03T13:34:30.601Z,2.67
2023-05-03T13:36:58.961Z,2.50
2023-05-03T13:39:26.503Z,2.63
2023-05-03T13:41:54.033Z,2.60
2023-05-03T13:44:22.603Z,2.50
2023-05-03T13:46:50.135Z,2.73
2023-05-03T13:49:18.450Z,2.37
2023-05-03T13:51:46.028Z,2.63
2023-05-03T13:54:13.554Z,2.13
2023-05-03T13:56:41.084Z,2.90
2023-05-03T13:59:08.642Z,2.50
2023-05-03T14:01:36.995Z,2.43
2023-05-03T14:04:04.555Z,2.13
2023-05-03T14:06:33.845Z,2.50
2023-05-03T14:09:00.348Z,2.63
2023-05-03T14:11:30.650Z,2.40
2023-05-03T14:13:58.884Z,2.47
2023-05-03T14:16:39.396Z,2.27
2023-05-03T14:18:53.240Z,2.50
2023-05-03T14:21:20.853Z,2.50
2023-05-03T14:23:48.351Z,2.53
2023-05-03T14:26:15.879Z,2.37
2023-05-03T14:28:43.452Z,2.60
2023-05-03T14:31:11.057Z,2.47
2023-05-03T14:33:38.540Z,2.43
2023-05-03T14:36:09.196Z,2.55
2023-05-03T14:38:36.652Z,2.20
2023-05-03T14:41:04.945Z,2.80
2023-05-03T14:43:32.576Z,2.67
2023-05-03T14:46:00.078Z,2.03
2023-05-03T14:48:28.379Z,2.67
2023-05-03T14:50:56.758Z,2.60
2023-05-03T14:53:24.276Z,1.97
2023-05-03T14:55:52.612Z,2.50
2023-05-03T14:58:20.156Z,2.50
2023-05-03T15:00:47.750Z,2.37
2023-05-03T15:03:15.217Z,2.50
2023-05-03T15:05:42.782Z,2.70
2023-05-03T15:08:11.100Z,2.47
2023-05-03T15:10:38.632Z,2.30
2023-05-03T15:13:06.423Z,2.07
2023-05-03T15:15:33.761Z,2.00
2023-05-03T15:18:01.402Z,2.00
2023-05-03T15:20:29.634Z,2.20
2023-05-03T15:22:57.139Z,2.00
2023-05-03T15:25:24.669Z,2.50
2023-05-03T15:27:52.282Z,2.10
2023-05-03T15:30:20.568Z,2.40
2023-05-03T15:32:48.121Z,2.17
2023-05-03T15:35:16.461Z,2.20
2023-05-03T15:37:43.976Z,1.93
2023-05-03T15:40:12.137Z,1.70
2023-05-03T15:42:39.727Z,2.15
2023-05-03T15:45:07.381Z,2.50
2023-05-03T15:47:34.924Z,1.80
2023-05-03T15:50:02.766Z,2.03
2023-05-03T15:52:30.034Z,1.70
2023-05-03T15:54:57.568Z,2.20
2023-05-03T15:57:25.898Z,2.00
2023-05-03T15:59:53.419Z,1.97
2023-05-03T16:02:20.963Z,1.70
2023-05-03T16:04:50.384Z,2.10
2023-05-03T16:07:16.835Z,2.07
2023-05-03T16:09:44.397Z,2.00
2023-05-03T16:12:12.026Z,2.13
2023-05-03T16:14:39.549Z,1.80
2023-05-03T16:17:07.077Z,1.87
2023-05-03T16:19:34.682Z,1.73
2023-05-03T16:22:02.969Z,2.00
2023-05-03T16:24:31.268Z,1.90
2023-05-03T16:26:58.830Z,2.20
2023-05-03T16:29:26.445Z,2.17
2023-05-03T16:31:54.034Z,2.13
2023-05-03T16:34:21.552Z,1.87
2023-05-03T16:36:49.085Z,2.20
2023-05-03T16:39:16.601Z,2.00
2023-05-03T16:41:44.166Z,1.57
2023-05-03T16:44:11.686Z,1.80
2023-05-03T16:46:39.218Z,2.00
2023-05-03T16:49:06.851Z,1.87
2023-05-03T16:51:35.124Z,1.53
2023-05-03T16:54:04.430Z,1.80
2023-05-03T16:56:31.770Z,1.97
2023-05-03T16:58:59.361Z,1.77
2023-05-03T17:01:26.855Z,1.80
2023-05-03T17:03:54.394Z,1.77
2023-05-03T17:06:21.929Z,1.90
2023-05-03T17:08:49.456Z,2.05
2023-05-03T17:11:17.807Z,1.83
2023-05-03T17:13:45.331Z,1.90
2023-05-03T17:16:12.927Z,2.00
2023-05-03T17:18:40.546Z,2.00
2023-05-03T17:21:08.000Z,2.08
2023-05-03T17:23:35.528Z,1.70
2023-05-03T17:26:03.119Z,1.73
2023-05-03T17:28:30.642Z,2.23
2023-05-03T17:30:58.942Z,1.90
2023-05-03T17:33:27.342Z,1.90
2023-05-03T17:35:54.859Z,1.83
2023-05-03T17:38:23.211Z,1.40
2023-05-03T17:40:50.827Z,2.20
2023-05-03T17:43:18.346Z,1.57
2023-05-03T17:45:46.633Z,1.80
2023-05-03T17:48:14.199Z,2.20
2023-05-03T17:50:41.746Z,1.70
2023-05-03T17:53:09.307Z,1.73
2023-05-03T17:55:37.096Z,1.70
2023-05-03T17:58:04.649Z,1.87
2023-05-03T18:00:32.181Z,1.50
2023-05-03T18:03:00.652Z,1.80
2023-05-03T18:05:28.083Z,1.97
2023-05-03T18:07:55.593Z,2.08
2023-05-03T18:10:23.452Z,2.00
2023-05-03T18:12:50.978Z,1.40
2023-05-03T18:15:18.466Z,1.90
2023-05-03T18:17:47.217Z,1.80
2023-05-03T18:20:14.720Z,2.30
2023-05-03T18:22:42.329Z,1.57
2023-05-03T18:25:10.648Z,1.47
2023-05-03T18:27:38.153Z,1.80
2023-05-03T18:30:06.083Z,1.50
2023-05-03T18:32:33.424Z,1.63
2023-05-03T18:35:00.963Z,1.77
2023-05-03T18:37:28.505Z,1.55
2023-05-03T18:39:56.102Z,1.50
2023-05-03T18:42:23.612Z,1.60
2023-05-03T18:44:51.166Z,1.70
2023-05-03T18:47:19.022Z,1.80
2023-05-03T18:49:48.789Z,2.10
2023-05-03T18:52:17.095Z,3.30
2023-05-03T18:54:44.683Z,2.70
2023-05-03T18:57:12.209Z,2.90
2023-05-03T18:59:48.731Z,7.00
2023-05-03T19:02:08.094Z,3.97
2023-05-03T19:04:35.732Z,1.33
2023-05-03T19:07:03.155Z,1.40
2023-05-03T19:09:30.743Z,1.10
2023-05-03T19:11:58.282Z,1.30
2023-05-03T19:14:26.566Z,1.20
2023-05-03T19:16:54.128Z,1.10
2023-05-03T19:19:21.664Z,1.30
2023-05-03T19:21:49.186Z,1.20
2023-05-03T19:24:16.803Z,1.07
2023-05-03T19:26:44.327Z,1.30
2023-05-03T19:29:11.837Z,1.47
2023-05-03T19:31:39.433Z,1.10
2023-05-03T19:34:07.000Z,1.20
2023-05-03T19:36:34.552Z,0.90
2023-05-03T19:39:02.389Z,1.33
2023-05-03T19:41:29.915Z,1.10
2023-05-03T19:43:57.448Z,1.30
2023-05-03T19:46:25.817Z,1.20
2023-05-03T19:48:53.325Z,1.30
2023-05-03T19:51:20.894Z,1.20
2023-05-03T19:53:49.261Z,1.20
2023-05-03T19:56:16.710Z,1.20
2023-05-03T19:58:44.230Z,1.43
2023-05-03T20:01:12.178Z,1.40
2023-05-03T20:03:39.820Z,1.17
2023-05-03T20:06:08.004Z,1.50
2023-05-03T20:08:35.565Z,1.57
2023-05-03T20:11:03.129Z,1.40
2023-05-03T20:13:30.663Z,1.30
2023-05-03T20:15:58.295Z,1.60
2023-05-03T20:18:25.798Z,2.00
2023-05-03T20:20:53.376Z,1.67
2023-05-03T20:23:20.925Z,1.50
2023-05-03T20:25:48.455Z,1.40
2023-05-03T20:28:15.989Z,1.20
2023-05-03T20:30:43.651Z,1.47
2023-05-03T20:33:11.204Z,1.47
2023-05-03T20:35:38.923Z,1.50
2023-05-03T20:38:06.504Z,1.70
2023-05-03T20:40:34.032Z,1.43
2023-05-03T20:43:01.572Z,1.50
2023-05-03T20:45:29.197Z,1.63
2023-05-03T20:47:56.704Z,1.70
2023-05-03T20:50:24.223Z,1.33
2023-05-03T20:52:52.586Z,1.87
2023-05-03T20:55:20.100Z,1.80
2023-05-03T20:57:47.648Z,2.00
2023-05-03T21:00:16.277Z,1.90
2023-05-03T21:02:43.961Z,1.50
2023-05-03T21:05:11.445Z,1.70
2023-05-03T21:07:39.664Z,1.60
2023-05-03T21:10:07.931Z,1.73
2023-05-03T21:12:34.970Z,1.90
2023-05-03T21:15:03.257Z,1.60
2023-05-03T21:17:30.818Z,1.60
2023-05-03T21:19:58.329Z,1.60
2023-05-03T21:22:26.721Z,1.50
2023-05-03T21:24:54.236Z,1.23
2023-05-03T21:27:22.535Z,1.40
2023-05-03T21:29:50.112Z,1.43
2023-05-03T21:32:17.638Z,1.40
2023-05-03T21:34:45.958Z,1.70
2023-05-03T21:37:14.314Z,1.53
2023-05-03T21:39:45.260Z,1.53
2023-05-03T21:42:09.396Z,1.50
2023-05-03T21:44:38.724Z,1.50
2023-05-03T21:47:06.260Z,1.40
2023-05-03T21:49:33.797Z,1.90
2023-05-03T21:52:01.922Z,1.90
2023-05-03T21:54:29.457Z,1.70
2023-05-03T21:56:57.770Z,1.77
2023-05-03T21:59:25.334Z,1.90
2023-05-03T22:01:52.958Z,1.87
2023-05-03T22:04:20.412Z,2.43
2023-05-03T22:06:48.007Z,1.80
2023-05-03T22:09:15.603Z,1.60
2023-05-03T22:11:43.134Z,1.87
2023-05-03T22:14:10.713Z,1.83
2023-05-03T22:16:38.392Z,2.10
2023-05-03T22:19:06.747Z,2.07
2023-05-03T22:21:34.156Z,2.00
2023-05-03T22:24:01.700Z,2.00
2023-05-03T22:26:30.013Z,2.27
2023-05-03T22:28:57.606Z,1.90
2023-05-03T22:31:25.208Z,1.90
2023-05-03T22:33:52.748Z,2.50
2023-05-03T22:36:21.162Z,2.50
2023-05-03T22:38:48.901Z,2.70
2023-05-03T22:41:17.212Z,2.80
2023-05-03T22:43:44.816Z,2.23
2023-05-03T22:46:12.413Z,2.50
2023-05-03T22:48:39.909Z,2.47
2023-05-03T22:51:07.481Z,2.73
2023-05-03T22:53:35.014Z,2.43
2023-05-03T22:56:02.562Z,2.30
2023-05-03T22:58:30.133Z,2.27
2023-05-03T23:00:57.735Z,2.67
2023-05-03T23:03:25.335Z,2.30
2023-05-03T23:05:53.136Z,2.70
2023-05-03T23:08:20.661Z,2.90
2023-05-03T23:10:48.192Z,2.80
2023-05-03T23:13:16.679Z,2.70
2023-05-03T23:15:44.089Z,2.50
2023-05-03T23:18:11.593Z,2.70
2023-05-03T23:20:39.479Z,3.00
2023-05-03T23:23:07.007Z,2.63
2023-05-03T23:25:35.302Z,3.00
2023-05-03T23:28:02.877Z,2.70
2023-05-03T23:30:30.401Z,2.97
2023-05-03T23:32:58.769Z,2.70
2023-05-03T23:35:27.038Z,3.42
2023-05-03T23:37:54.609Z,2.93
2023-05-03T23:40:22.103Z,3.20
2023-05-03T23:42:49.758Z,3.50
2023-05-03T23:45:17.289Z,4.33
2023-05-03T23:47:44.881Z,3.93
2023-05-03T23:50:12.419Z,3.60
2023-05-03T23:52:40.704Z,4.05
2023-05-03T23:55:08.328Z,3.97
2023-05-03T23:57:36.449Z,4.17
